sensor_id;sensor_type;location;lat;lon;timestamp;P1;durP1;ratioP1;P2;durP2;ratioP2
43771;SDS011;59066;54.782;32.024;2022-11-21T00:01:12;9.98;;;6.60;;
43771;SDS011;59066;54.782;32.024;2022-11-21T00:03:45;10.82;;;6.97;;
43771;SDS011;59066;54.782;32.024;2022-11-21T00:06:13;10.18;;;6.00;;
43771;SDS011;59066;54.782;32.024;2022-11-21T00:08:40;9.95;;;5.57;;
43771;SDS011;59066;54.782;32.024;2022-11-21T00:11:08;12.73;;;6.97;;
43771;SDS011;59066;54.782;32.024;2022-11-21T00:13:35;12.70;;;6.47;;
43771;SDS011;59066;54.782;32.024;2022-11-21T00:16:07;12.45;;;7.20;;
43771;SDS011;59066;54.782;32.024;2022-11-21T00:18:37;10.00;;;6.43;;
43771;SDS011;59066;54.782;32.024;2022-11-21T00:21:05;10.50;;;6.45;;
43771;SDS011;59066;54.782;32.024;2022-11-21T00:23:33;12.05;;;6.30;;
43771;SDS011;59066;54.782;32.024;2022-11-21T00:26:07;8.57;;;5.55;;
43771;SDS011;59066;54.782;32.024;2022-11-21T00:28:36;12.20;;;7.30;;
43771;SDS011;59066;54.782;32.024;2022-11-21T00:31:04;10.70;;;6.40;;
43771;SDS011;59066;54.782;32.024;2022-11-21T00:33:35;10.30;;;5.95;;
43771;SDS011;59066;54.782;32.024;2022-11-21T00:36:05;9.90;;;6.60;;
43771;SDS011;59066;54.782;32.024;2022-11-21T00:38:34;10.25;;;5.95;;
43771;SDS011;59066;54.782;32.024;2022-11-21T00:41:02;10.90;;;6.15;;
43771;SDS011;59066;54.782;32.024;2022-11-21T00:43:29;11.82;;;6.10;;
43771;SDS011;59066;54.782;32.024;2022-11-21T00:45:57;9.60;;;5.70;;
43771;SDS011;59066;54.782;32.024;2022-11-21T00:48:27;12.18;;;7.03;;
43771;SDS011;59066;54.782;32.024;2022-11-21T00:50:55;11.52;;;6.18;;
43771;SDS011;59066;54.782;32.024;2022-11-21T00:53:23;11.63;;;5.70;;
43771;SDS011;59066;54.782;32.024;2022-11-21T00:55:50;10.70;;;6.32;;
43771;SDS011;59066;54.782;32.024;2022-11-21T00:58:17;11.80;;;7.53;;
43771;SDS011;59066;54.782;32.024;2022-11-21T01:00:45;11.30;;;7.13;;
43771;SDS011;59066;54.782;32.024;2022-11-21T01:03:12;12.45;;;7.32;;
43771;SDS011;59066;54.782;32.024;2022-11-21T01:05:39;10.38;;;5.97;;
43771;SDS011;59066;54.782;32.024;2022-11-21T01:08:06;13.40;;;6.88;;
43771;SDS011;59066;54.782;32.024;2022-11-21T01:10:34;14.45;;;9.45;;
43771;SDS011;59066;54.782;32.024;2022-11-21T01:13:02;13.10;;;7.78;;
43771;SDS011;59066;54.782;32.024;2022-11-21T01:15:30;13.95;;;7.65;;
43771;SDS011;59066;54.782;32.024;2022-11-21T01:17:57;12.80;;;6.50;;
43771;SDS011;59066;54.782;32.024;2022-11-21T01:20:24;13.93;;;6.65;;
43771;SDS011;59066;54.782;32.024;2022-11-21T01:22:52;14.90;;;8.35;;
43771;SDS011;59066;54.782;32.024;2022-11-21T01:25:19;11.77;;;6.78;;
43771;SDS011;59066;54.782;32.024;2022-11-21T01:27:46;12.20;;;6.18;;
43771;SDS011;59066;54.782;32.024;2022-11-21T01:30:14;13.90;;;7.57;;
43771;SDS011;59066;54.782;32.024;2022-11-21T01:32:41;13.88;;;7.68;;
43771;SDS011;59066;54.782;32.024;2022-11-21T01:35:08;12.60;;;7.28;;
43771;SDS011;59066;54.782;32.024;2022-11-21T01:37:36;15.18;;;7.18;;
43771;SDS011;59066;54.782;32.024;2022-11-21T01:40:03;14.50;;;7.22;;
43771;SDS011;59066;54.782;32.024;2022-11-21T01:42:42;14.68;;;7.43;;
43771;SDS011;59066;54.782;32.024;2022-11-21T01:48:17;12.32;;;7.00;;
43771;SDS011;59066;54.782;32.024;2022-11-21T01:50:44;11.75;;;6.95;;
43771;SDS011;59066;54.782;32.024;2022-11-21T01:53:12;16.90;;;8.98;;
43771;SDS011;59066;54.782;32.024;2022-11-21T01:55:39;13.40;;;8.30;;
43771;SDS011;59066;54.782;32.024;2022-11-21T01:58:06;13.00;;;7.85;;
43771;SDS011;59066;54.782;32.024;2022-11-21T02:00:36;12.77;;;7.05;;
43771;SDS011;59066;54.782;32.024;2022-11-21T02:03:07;14.20;;;8.05;;
43771;SDS011;59066;54.782;32.024;2022-11-21T02:05:38;18.77;;;9.20;;
43771;SDS011;59066;54.782;32.024;2022-11-21T02:08:12;15.95;;;8.82;;
43771;SDS011;59066;54.782;32.024;2022-11-21T02:10:56;14.07;;;8.73;;
43771;SDS011;59066;54.782;32.024;2022-11-21T02:13:46;15.60;;;8.07;;
43771;SDS011;59066;54.782;32.024;2022-11-21T02:16:13;17.42;;;8.73;;
43771;SDS011;59066;54.782;32.024;2022-11-21T02:18:40;14.68;;;8.18;;
43771;SDS011;59066;54.782;32.024;2022-11-21T02:26:10;16.95;;;8.93;;
43771;SDS011;59066;54.782;32.024;2022-11-21T02:28:38;16.45;;;8.75;;
43771;SDS011;59066;54.782;32.024;2022-11-21T02:31:06;16.17;;;8.63;;
43771;SDS011;59066;54.782;32.024;2022-11-21T02:33:34;16.08;;;8.20;;
43771;SDS011;59066;54.782;32.024;2022-11-21T02:36:01;17.00;;;8.95;;
43771;SDS011;59066;54.782;32.024;2022-11-21T02:38:31;14.52;;;7.97;;
43771;SDS011;59066;54.782;32.024;2022-11-21T02:43:54;17.60;;;8.80;;
43771;SDS011;59066;54.782;32.024;2022-11-21T02:46:27;16.73;;;8.90;;
43771;SDS011;59066;54.782;32.024;2022-11-21T02:48:55;17.95;;;9.80;;
43771;SDS011;59066;54.782;32.024;2022-11-21T02:51:24;16.70;;;9.00;;
43771;SDS011;59066;54.782;32.024;2022-11-21T02:53:51;15.82;;;8.48;;
43771;SDS011;59066;54.782;32.024;2022-11-21T02:56:18;18.38;;;9.23;;
43771;SDS011;59066;54.782;32.024;2022-11-21T02:58:46;15.55;;;8.63;;
43771;SDS011;59066;54.782;32.024;2022-11-21T03:01:13;19.77;;;10.02;;
43771;SDS011;59066;54.782;32.024;2022-11-21T03:03:41;20.60;;;9.85;;
43771;SDS011;59066;54.782;32.024;2022-11-21T03:06:08;18.15;;;8.75;;
43771;SDS011;59066;54.782;32.024;2022-11-21T03:08:35;20.40;;;9.80;;
43771;SDS011;59066;54.782;32.024;2022-11-21T03:11:02;16.50;;;8.52;;
43771;SDS011;59066;54.782;32.024;2022-11-21T03:13:32;18.92;;;9.13;;
43771;SDS011;59066;54.782;32.024;2022-11-21T03:16:00;19.35;;;9.40;;
43771;SDS011;59066;54.782;32.024;2022-11-21T03:18:27;15.88;;;8.98;;
43771;SDS011;59066;54.782;32.024;2022-11-21T03:20:56;16.13;;;8.18;;
43771;SDS011;59066;54.782;32.024;2022-11-21T03:23:23;18.40;;;9.20;;
43771;SDS011;59066;54.782;32.024;2022-11-21T03:25:50;20.45;;;9.68;;
43771;SDS011;59066;54.782;32.024;2022-11-21T03:28:18;17.20;;;7.93;;
43771;SDS011;59066;54.782;32.024;2022-11-21T03:30:46;17.40;;;10.38;;
43771;SDS011;59066;54.782;32.024;2022-11-21T03:33:13;18.38;;;9.70;;
43771;SDS011;59066;54.782;32.024;2022-11-21T03:35:40;20.95;;;10.48;;
43771;SDS011;59066;54.782;32.024;2022-11-21T03:38:07;17.67;;;10.07;;
43771;SDS011;59066;54.782;32.024;2022-11-21T03:40:35;22.77;;;11.27;;
43771;SDS011;59066;54.782;32.024;2022-11-21T03:43:03;19.70;;;9.63;;
43771;SDS011;59066;54.782;32.024;2022-11-21T03:45:31;21.98;;;11.02;;
43771;SDS011;59066;54.782;32.024;2022-11-21T03:47:59;22.48;;;9.57;;
43771;SDS011;59066;54.782;32.024;2022-11-21T03:50:27;18.42;;;9.48;;
43771;SDS011;59066;54.782;32.024;2022-11-21T03:52:54;19.63;;;10.25;;
43771;SDS011;59066;54.782;32.024;2022-11-21T03:55:21;16.73;;;9.40;;
43771;SDS011;59066;54.782;32.024;2022-11-21T03:57:49;23.58;;;10.32;;
43771;SDS011;59066;54.782;32.024;2022-11-21T04:00:16;21.40;;;11.30;;
43771;SDS011;59066;54.782;32.024;2022-11-21T04:02:44;21.65;;;9.82;;
43771;SDS011;59066;54.782;32.024;2022-11-21T04:05:11;19.40;;;12.55;;
43771;SDS011;59066;54.782;32.024;2022-11-21T04:07:38;21.55;;;10.32;;
43771;SDS011;59066;54.782;32.024;2022-11-21T04:10:06;21.00;;;10.70;;
43771;SDS011;59066;54.782;32.024;2022-11-21T04:12:33;21.55;;;11.07;;
43771;SDS011;59066;54.782;32.024;2022-11-21T04:15:01;23.45;;;12.23;;
43771;SDS011;59066;54.782;32.024;2022-11-21T04:17:28;25.52;;;13.30;;
43771;SDS011;59066;54.782;32.024;2022-11-21T04:19:57;22.23;;;11.80;;
43771;SDS011;59066;54.782;32.024;2022-11-21T04:22:24;22.70;;;9.68;;
43771;SDS011;59066;54.782;32.024;2022-11-21T04:24:52;17.85;;;10.35;;
43771;SDS011;59066;54.782;32.024;2022-11-21T04:27:19;23.15;;;11.73;;
43771;SDS011;59066;54.782;32.024;2022-11-21T04:29:46;20.75;;;11.18;;
43771;SDS011;59066;54.782;32.024;2022-11-21T04:32:14;20.65;;;9.65;;
43771;SDS011;59066;54.782;32.024;2022-11-21T04:34:41;20.25;;;11.07;;
43771;SDS011;59066;54.782;32.024;2022-11-21T04:37:09;20.33;;;11.00;;
43771;SDS011;59066;54.782;32.024;2022-11-21T04:39:37;31.75;;;12.95;;
43771;SDS011;59066;54.782;32.024;2022-11-21T04:42:04;25.13;;;11.40;;
43771;SDS011;59066;54.782;32.024;2022-11-21T04:44:32;25.15;;;11.40;;
43771;SDS011;59066;54.782;32.024;2022-11-21T04:46:59;23.73;;;11.63;;
43771;SDS011;59066;54.782;32.024;2022-11-21T04:49:30;26.67;;;11.88;;
43771;SDS011;59066;54.782;32.024;2022-11-21T04:51:58;23.63;;;12.60;;
43771;SDS011;59066;54.782;32.024;2022-11-21T04:54:25;22.35;;;11.55;;
43771;SDS011;59066;54.782;32.024;2022-11-21T04:56:53;22.58;;;11.55;;
43771;SDS011;59066;54.782;32.024;2022-11-21T04:59:20;24.60;;;13.18;;
43771;SDS011;59066;54.782;32.024;2022-11-21T05:01:48;22.92;;;12.00;;
43771;SDS011;59066;54.782;32.024;2022-11-21T05:04:15;26.25;;;11.80;;
43771;SDS011;59066;54.782;32.024;2022-11-21T05:06:42;26.50;;;15.38;;
43771;SDS011;59066;54.782;32.024;2022-11-21T05:09:10;26.75;;;13.40;;
43771;SDS011;59066;54.782;32.024;2022-11-21T05:11:37;23.95;;;12.05;;
43771;SDS011;59066;54.782;32.024;2022-11-21T05:14:23;31.13;;;14.63;;
43771;SDS011;59066;54.782;32.024;2022-11-21T05:16:52;30.85;;;13.82;;
43771;SDS011;59066;54.782;32.024;2022-11-21T05:19:19;24.25;;;13.40;;
43771;SDS011;59066;54.782;32.024;2022-11-21T05:21:47;31.17;;;14.98;;
43771;SDS011;59066;54.782;32.024;2022-11-21T05:24:14;28.60;;;13.73;;
43771;SDS011;59066;54.782;32.024;2022-11-21T05:26:41;29.75;;;15.00;;
43771;SDS011;59066;54.782;32.024;2022-11-21T05:29:09;26.27;;;12.75;;
43771;SDS011;59066;54.782;32.024;2022-11-21T05:31:36;28.45;;;13.68;;
43771;SDS011;59066;54.782;32.024;2022-11-21T05:34:03;22.25;;;12.55;;
43771;SDS011;59066;54.782;32.024;2022-11-21T05:36:31;27.10;;;14.48;;
43771;SDS011;59066;54.782;32.024;2022-11-21T05:38:58;24.10;;;11.13;;
43771;SDS011;59066;54.782;32.024;2022-11-21T05:41:25;26.13;;;13.70;;
43771;SDS011;59066;54.782;32.024;2022-11-21T05:43:53;25.50;;;11.93;;
43771;SDS011;59066;54.782;32.024;2022-11-21T05:46:24;26.30;;;14.45;;
43771;SDS011;59066;54.782;32.024;2022-11-21T05:48:52;27.42;;;13.55;;
43771;SDS011;59066;54.782;32.024;2022-11-21T05:51:20;26.88;;;13.00;;
43771;SDS011;59066;54.782;32.024;2022-11-21T05:53:48;29.35;;;13.20;;
43771;SDS011;59066;54.782;32.024;2022-11-21T05:56:16;28.50;;;14.20;;
43771;SDS011;59066;54.782;32.024;2022-11-21T05:58:45;24.08;;;11.32;;
43771;SDS011;59066;54.782;32.024;2022-11-21T06:01:13;22.27;;;11.52;;
43771;SDS011;59066;54.782;32.024;2022-11-21T06:03:41;24.42;;;11.88;;
43771;SDS011;59066;54.782;32.024;2022-11-21T06:06:12;23.42;;;11.57;;
43771;SDS011;59066;54.782;32.024;2022-11-21T06:08:45;23.05;;;11.32;;
43771;SDS011;59066;54.782;32.024;2022-11-21T06:11:13;23.00;;;11.77;;
43771;SDS011;59066;54.782;32.024;2022-11-21T06:13:42;24.58;;;13.88;;
43771;SDS011;59066;54.782;32.024;2022-11-21T06:16:10;23.45;;;12.57;;
43771;SDS011;59066;54.782;32.024;2022-11-21T06:18:48;27.48;;;12.77;;
43771;SDS011;59066;54.782;32.024;2022-11-21T06:21:24;27.27;;;12.52;;
43771;SDS011;59066;54.782;32.024;2022-11-21T06:23:57;30.52;;;14.63;;
43771;SDS011;59066;54.782;32.024;2022-11-21T06:26:26;27.33;;;13.48;;
43771;SDS011;59066;54.782;32.024;2022-11-21T06:28:54;23.10;;;12.02;;
43771;SDS011;59066;54.782;32.024;2022-11-21T06:31:22;26.73;;;15.30;;
43771;SDS011;59066;54.782;32.024;2022-11-21T06:33:52;34.40;;;16.88;;
43771;SDS011;59066;54.782;32.024;2022-11-21T06:36:21;30.88;;;15.93;;
43771;SDS011;59066;54.782;32.024;2022-11-21T06:38:48;34.20;;;14.70;;
43771;SDS011;59066;54.782;32.024;2022-11-21T06:41:17;30.02;;;14.13;;
43771;SDS011;59066;54.782;32.024;2022-11-21T06:43:46;24.05;;;12.60;;
43771;SDS011;59066;54.782;32.024;2022-11-21T06:46:14;29.23;;;14.55;;
43771;SDS011;59066;54.782;32.024;2022-11-21T06:48:41;26.90;;;14.07;;
43771;SDS011;59066;54.782;32.024;2022-11-21T06:51:11;29.20;;;15.13;;
43771;SDS011;59066;54.782;32.024;2022-11-21T06:53:39;30.00;;;17.85;;
43771;SDS011;59066;54.782;32.024;2022-11-21T06:56:06;28.10;;;14.27;;
43771;SDS011;59066;54.782;32.024;2022-11-21T06:58:34;27.08;;;18.67;;
43771;SDS011;59066;54.782;32.024;2022-11-21T07:01:05;28.38;;;14.23;;
43771;SDS011;59066;54.782;32.024;2022-11-21T07:03:33;29.95;;;14.00;;
43771;SDS011;59066;54.782;32.024;2022-11-21T07:06:02;24.95;;;12.75;;
43771;SDS011;59066;54.782;32.024;2022-11-21T07:08:30;26.35;;;13.98;;
43771;SDS011;59066;54.782;32.024;2022-11-21T07:11:00;28.30;;;15.77;;
43771;SDS011;59066;54.782;32.024;2022-11-21T07:13:49;27.70;;;14.23;;
43771;SDS011;59066;54.782;32.024;2022-11-21T07:16:16;31.80;;;17.17;;
43771;SDS011;59066;54.782;32.024;2022-11-21T07:18:44;25.52;;;13.95;;
43771;SDS011;59066;54.782;32.024;2022-11-21T07:21:11;33.88;;;15.65;;
43771;SDS011;59066;54.782;32.024;2022-11-21T07:23:38;24.10;;;14.10;;
43771;SDS011;59066;54.782;32.024;2022-11-21T07:26:06;26.65;;;14.02;;
43771;SDS011;59066;54.782;32.024;2022-11-21T07:28:35;30.42;;;14.25;;
43771;SDS011;59066;54.782;32.024;2022-11-21T07:31:03;28.33;;;13.52;;
43771;SDS011;59066;54.782;32.024;2022-11-21T07:33:37;34.85;;;18.58;;
43771;SDS011;59066;54.782;32.024;2022-11-21T07:36:04;28.30;;;15.18;;
43771;SDS011;59066;54.782;32.024;2022-11-21T07:38:32;33.00;;;15.77;;
43771;SDS011;59066;54.782;32.024;2022-11-21T07:41:00;38.75;;;18.85;;
43771;SDS011;59066;54.782;32.024;2022-11-21T07:43:27;26.42;;;13.57;;
43771;SDS011;59066;54.782;32.024;2022-11-21T07:45:55;33.88;;;15.45;;
43771;SDS011;59066;54.782;32.024;2022-11-21T07:48:22;30.45;;;13.98;;
43771;SDS011;59066;54.782;32.024;2022-11-21T07:50:50;29.30;;;13.80;;
43771;SDS011;59066;54.782;32.024;2022-11-21T07:53:17;29.45;;;14.10;;
43771;SDS011;59066;54.782;32.024;2022-11-21T07:55:45;26.20;;;14.40;;
43771;SDS011;59066;54.782;32.024;2022-11-21T07:58:13;27.52;;;13.55;;
43771;SDS011;59066;54.782;32.024;2022-11-21T08:00:42;39.65;;;20.58;;
43771;SDS011;59066;54.782;32.024;2022-11-21T08:03:10;31.77;;;16.83;;
43771;SDS011;59066;54.782;32.024;2022-11-21T08:05:39;37.95;;;16.65;;
43771;SDS011;59066;54.782;32.024;2022-11-21T08:08:08;35.40;;;18.80;;
43771;SDS011;59066;54.782;32.024;2022-11-21T08:10:38;30.52;;;14.48;;
43771;SDS011;59066;54.782;32.024;2022-11-21T08:13:10;32.15;;;16.52;;
43771;SDS011;59066;54.782;32.024;2022-11-21T08:15:38;32.90;;;15.85;;
43771;SDS011;59066;54.782;32.024;2022-11-21T08:18:09;35.40;;;17.65;;
43771;SDS011;59066;54.782;32.024;2022-11-21T08:20:41;32.85;;;16.48;;
43771;SDS011;59066;54.782;32.024;2022-11-21T08:23:09;30.65;;;16.27;;
43771;SDS011;59066;54.782;32.024;2022-11-21T08:25:39;36.47;;;17.27;;
43771;SDS011;59066;54.782;32.024;2022-11-21T08:28:08;31.15;;;15.15;;
43771;SDS011;59066;54.782;32.024;2022-11-21T08:30:37;31.70;;;15.60;;
43771;SDS011;59066;54.782;32.024;2022-11-21T08:33:05;29.10;;;14.05;;
43771;SDS011;59066;54.782;32.024;2022-11-21T08:35:34;34.25;;;14.30;;
43771;SDS011;59066;54.782;32.024;2022-11-21T08:38:03;32.38;;;15.95;;
43771;SDS011;59066;54.782;32.024;2022-11-21T08:40:32;32.45;;;14.65;;
43771;SDS011;59066;54.782;32.024;2022-11-21T08:43:04;32.72;;;13.07;;
43771;SDS011;59066;54.782;32.024;2022-11-21T08:45:35;27.25;;;14.25;;
43771;SDS011;59066;54.782;32.024;2022-11-21T08:48:08;30.33;;;15.85;;
43771;SDS011;59066;54.782;32.024;2022-11-21T08:50:37;26.58;;;13.20;;
43771;SDS011;59066;54.782;32.024;2022-11-21T08:53:05;32.38;;;15.23;;
43771;SDS011;59066;54.782;32.024;2022-11-21T08:55:32;30.08;;;14.82;;
43771;SDS011;59066;54.782;32.024;2022-11-21T08:57:59;34.90;;;15.93;;
43771;SDS011;59066;54.782;32.024;2022-11-21T09:00:27;33.85;;;15.50;;
43771;SDS011;59066;54.782;32.024;2022-11-21T09:02:54;34.10;;;15.05;;
43771;SDS011;59066;54.782;32.024;2022-11-21T09:05:22;36.03;;;16.73;;
43771;SDS011;59066;54.782;32.024;2022-11-21T09:07:55;30.17;;;16.00;;
43771;SDS011;59066;54.782;32.024;2022-11-21T09:10:24;33.83;;;17.23;;
43771;SDS011;59066;54.782;32.024;2022-11-21T09:12:52;39.35;;;17.38;;
43771;SDS011;59066;54.782;32.024;2022-11-21T09:15:19;33.63;;;16.58;;
43771;SDS011;59066;54.782;32.024;2022-11-21T09:18:05;30.75;;;14.85;;
43771;SDS011;59066;54.782;32.024;2022-11-21T09:20:40;35.20;;;16.15;;
43771;SDS011;59066;54.782;32.024;2022-11-21T09:23:12;32.88;;;15.77;;
43771;SDS011;59066;54.782;32.024;2022-11-21T09:25:41;30.90;;;15.45;;
43771;SDS011;59066;54.782;32.024;2022-11-21T09:28:10;41.95;;;17.05;;
43771;SDS011;59066;54.782;32.024;2022-11-21T09:30:39;34.42;;;16.58;;
43771;SDS011;59066;54.782;32.024;2022-11-21T09:33:11;38.35;;;19.13;;
43771;SDS011;59066;54.782;32.024;2022-11-21T09:35:40;36.85;;;17.83;;
43771;SDS011;59066;54.782;32.024;2022-11-21T09:38:07;38.22;;;16.40;;
43771;SDS011;59066;54.782;32.024;2022-11-21T09:40:35;39.15;;;15.93;;
43771;SDS011;59066;54.782;32.024;2022-11-21T09:43:25;40.42;;;17.30;;
43771;SDS011;59066;54.782;32.024;2022-11-21T09:46:20;35.35;;;16.88;;
43771;SDS011;59066;54.782;32.024;2022-11-21T09:48:57;45.67;;;23.15;;
43771;SDS011;59066;54.782;32.024;2022-11-21T09:51:28;41.47;;;20.50;;
43771;SDS011;59066;54.782;32.024;2022-11-21T09:53:58;38.45;;;17.83;;
43771;SDS011;59066;54.782;32.024;2022-11-21T09:56:27;37.63;;;16.60;;
43771;SDS011;59066;54.782;32.024;2022-11-21T10:01:43;34.67;;;19.13;;
43771;SDS011;59066;54.782;32.024;2022-11-21T10:04:10;33.08;;;14.23;;
43771;SDS011;59066;54.782;32.024;2022-11-21T10:14:49;34.47;;;15.57;;
43771;SDS011;59066;54.782;32.024;2022-11-21T10:17:38;37.33;;;17.40;;
43771;SDS011;59066;54.782;32.024;2022-11-21T10:25:32;36.20;;;16.33;;
43771;SDS011;59066;54.782;32.024;2022-11-21T10:28:07;35.08;;;16.05;;
43771;SDS011;59066;54.782;32.024;2022-11-21T10:30:43;34.60;;;16.67;;
43771;SDS011;59066;54.782;32.024;2022-11-21T10:33:13;32.75;;;16.70;;
43771;SDS011;59066;54.782;32.024;2022-11-21T10:35:48;30.52;;;14.77;;
43771;SDS011;59066;54.782;32.024;2022-11-21T10:38:25;29.85;;;15.27;;
43771;SDS011;59066;54.782;32.024;2022-11-21T10:43:55;33.33;;;17.45;;
43771;SDS011;59066;54.782;32.024;2022-11-21T10:46:57;44.55;;;20.45;;
43771;SDS011;59066;54.782;32.024;2022-11-21T10:49:26;47.03;;;24.13;;
43771;SDS011;59066;54.782;32.024;2022-11-21T10:52:06;31.83;;;17.42;;
43771;SDS011;59066;54.782;32.024;2022-11-21T11:02:41;27.60;;;13.93;;
43771;SDS011;59066;54.782;32.024;2022-11-21T11:05:31;33.22;;;15.00;;
43771;SDS011;59066;54.782;32.024;2022-11-21T11:08:13;32.10;;;16.27;;
43771;SDS011;59066;54.782;32.024;2022-11-21T11:10:44;74.00;;;44.63;;
43771;SDS011;59066;54.782;32.024;2022-11-21T11:13:27;33.25;;;18.88;;
43771;SDS011;59066;54.782;32.024;2022-11-21T11:16:16;25.15;;;14.80;;
43771;SDS011;59066;54.782;32.024;2022-11-21T11:21:43;25.67;;;13.40;;
43771;SDS011;59066;54.782;32.024;2022-11-21T11:32:15;35.17;;;15.35;;
43771;SDS011;59066;54.782;32.024;2022-11-21T11:34:52;33.25;;;16.02;;
43771;SDS011;59066;54.782;32.024;2022-11-21T11:48:30;32.70;;;15.93;;
43771;SDS011;59066;54.782;32.024;2022-11-21T11:53:49;36.65;;;17.48;;
43771;SDS011;59066;54.782;32.024;2022-11-21T11:56:27;37.33;;;14.55;;
43771;SDS011;59066;54.782;32.024;2022-11-21T12:01:49;27.45;;;13.80;;
43771;SDS011;59066;54.782;32.024;2022-11-21T12:04:22;29.00;;;14.38;;
43771;SDS011;59066;54.782;32.024;2022-11-21T12:06:56;26.25;;;13.55;;
43771;SDS011;59066;54.782;32.024;2022-11-21T12:10:03;33.08;;;17.98;;
43771;SDS011;59066;54.782;32.024;2022-11-21T12:12:49;27.23;;;15.70;;
43771;SDS011;59066;54.782;32.024;2022-11-21T12:15:35;27.83;;;14.43;;
43771;SDS011;59066;54.782;32.024;2022-11-21T12:23:29;29.08;;;14.32;;
43771;SDS011;59066;54.782;32.024;2022-11-21T12:26:06;32.67;;;17.42;;
43771;SDS011;59066;54.782;32.024;2022-11-21T12:34:23;27.50;;;14.20;;
43771;SDS011;59066;54.782;32.024;2022-11-21T12:37:03;27.67;;;13.55;;
43771;SDS011;59066;54.782;32.024;2022-11-21T12:39:54;30.48;;;15.07;;
43771;SDS011;59066;54.782;32.024;2022-11-21T12:42:40;29.33;;;15.05;;
43771;SDS011;59066;54.782;32.024;2022-11-21T12:45:26;27.20;;;13.13;;
43771;SDS011;59066;54.782;32.024;2022-11-21T12:51:15;18.98;;;11.82;;
43771;SDS011;59066;54.782;32.024;2022-11-21T12:59:48;23.92;;;13.10;;
43771;SDS011;59066;54.782;32.024;2022-11-21T13:05:15;26.73;;;13.20;;
43771;SDS011;59066;54.782;32.024;2022-11-21T13:07:57;22.98;;;13.88;;
43771;SDS011;59066;54.782;32.024;2022-11-21T13:10:30;22.05;;;11.35;;
43771;SDS011;59066;54.782;32.024;2022-11-21T13:16:15;23.73;;;11.95;;
43771;SDS011;59066;54.782;32.024;2022-11-21T13:19:15;22.23;;;12.65;;
43771;SDS011;59066;54.782;32.024;2022-11-21T13:21:50;21.70;;;12.05;;
43771;SDS011;59066;54.782;32.024;2022-11-21T13:24:55;24.75;;;12.80;;
43771;SDS011;59066;54.782;32.024;2022-11-21T13:32:45;23.02;;;11.93;;
43771;SDS011;59066;54.782;32.024;2022-11-21T13:46:01;22.77;;;12.18;;
43771;SDS011;59066;54.782;32.024;2022-11-21T13:51:07;23.13;;;12.15;;
43771;SDS011;59066;54.782;32.024;2022-11-21T13:59:37;22.55;;;12.82;;
43771;SDS011;59066;54.782;32.024;2022-11-21T14:07:40;27.08;;;13.68;;
43771;SDS011;59066;54.782;32.024;2022-11-21T14:10:28;27.20;;;15.70;;
43771;SDS011;59066;54.782;32.024;2022-11-21T14:12:56;28.10;;;14.25;;
43771;SDS011;59066;54.782;32.024;2022-11-21T14:15:27;26.48;;;13.40;;
43771;SDS011;59066;54.782;32.024;2022-11-21T14:18:20;29.05;;;14.43;;
43771;SDS011;59066;54.782;32.024;2022-11-21T14:23:30;25.23;;;15.57;;
43771;SDS011;59066;54.782;32.024;2022-11-21T14:26:00;25.63;;;13.88;;
43771;SDS011;59066;54.782;32.024;2022-11-21T14:28:31;28.45;;;14.63;;
43771;SDS011;59066;54.782;32.024;2022-11-21T14:31:04;27.77;;;12.98;;
43771;SDS011;59066;54.782;32.024;2022-11-21T14:33:35;27.45;;;13.13;;
43771;SDS011;59066;54.782;32.024;2022-11-21T14:36:28;27.75;;;15.63;;
43771;SDS011;59066;54.782;32.024;2022-11-21T14:38:58;33.30;;;16.48;;
43771;SDS011;59066;54.782;32.024;2022-11-21T14:41:55;32.60;;;16.20;;
43771;SDS011;59066;54.782;32.024;2022-11-21T14:44:25;34.00;;;16.40;;
43771;SDS011;59066;54.782;32.024;2022-11-21T14:49:51;34.25;;;18.30;;
43771;SDS011;59066;54.782;32.024;2022-11-21T14:52:25;32.78;;;17.05;;
43771;SDS011;59066;54.782;32.024;2022-11-21T14:54:55;31.85;;;16.65;;
43771;SDS011;59066;54.782;32.024;2022-11-21T14:57:44;29.73;;;14.48;;
43771;SDS011;59066;54.782;32.024;2022-11-21T15:00:13;32.67;;;15.02;;
43771;SDS011;59066;54.782;32.024;2022-11-21T15:03:03;32.90;;;15.23;;
43771;SDS011;59066;54.782;32.024;2022-11-21T15:05:31;27.30;;;14.45;;
43771;SDS011;59066;54.782;32.024;2022-11-21T15:08:23;30.67;;;14.85;;
43771;SDS011;59066;54.782;32.024;2022-11-21T15:11:10;32.50;;;14.48;;
43771;SDS011;59066;54.782;32.024;2022-11-21T15:13:39;33.00;;;16.27;;
43771;SDS011;59066;54.782;32.024;2022-11-21T15:16:28;34.17;;;16.27;;
43771;SDS011;59066;54.782;32.024;2022-11-21T15:18:55;27.42;;;15.70;;
43771;SDS011;59066;54.782;32.024;2022-11-21T15:21:23;28.98;;;16.42;;
43771;SDS011;59066;54.782;32.024;2022-11-21T15:23:50;26.52;;;14.40;;
43771;SDS011;59066;54.782;32.024;2022-11-21T15:26:31;31.70;;;16.08;;
43771;SDS011;59066;54.782;32.024;2022-11-21T15:29:01;33.25;;;17.50;;
43771;SDS011;59066;54.782;32.024;2022-11-21T15:31:28;32.58;;;17.92;;
43771;SDS011;59066;54.782;32.024;2022-11-21T15:34:00;24.27;;;13.43;;
43771;SDS011;59066;54.782;32.024;2022-11-21T15:37:04;28.42;;;15.73;;
43771;SDS011;59066;54.782;32.024;2022-11-21T15:39:43;26.10;;;13.88;;
43771;SDS011;59066;54.782;32.024;2022-11-21T15:47:45;25.20;;;13.05;;
43771;SDS011;59066;54.782;32.024;2022-11-21T15:50:14;24.50;;;12.63;;
43771;SDS011;59066;54.782;32.024;2022-11-21T15:52:44;25.33;;;14.13;;
43771;SDS011;59066;54.782;32.024;2022-11-21T15:55:21;27.02;;;14.32;;
43771;SDS011;59066;54.782;32.024;2022-11-21T15:57:51;25.45;;;13.85;;
43771;SDS011;59066;54.782;32.024;2022-11-21T16:00:28;30.80;;;17.35;;
43771;SDS011;59066;54.782;32.024;2022-11-21T16:02:55;35.13;;;14.43;;
43771;SDS011;59066;54.782;32.024;2022-11-21T16:05:22;23.42;;;13.73;;
43771;SDS011;59066;54.782;32.024;2022-11-21T16:07:50;26.08;;;14.93;;
43771;SDS011;59066;54.782;32.024;2022-11-21T16:10:17;23.65;;;13.05;;
43771;SDS011;59066;54.782;32.024;2022-11-21T16:12:52;23.00;;;13.52;;
43771;SDS011;59066;54.782;32.024;2022-11-21T16:15:20;23.17;;;13.25;;
43771;SDS011;59066;54.782;32.024;2022-11-21T16:17:47;23.08;;;12.32;;
43771;SDS011;59066;54.782;32.024;2022-11-21T16:20:15;26.67;;;13.10;;
43771;SDS011;59066;54.782;32.024;2022-11-21T16:22:42;19.70;;;11.07;;
43771;SDS011;59066;54.782;32.024;2022-11-21T16:25:13;20.67;;;11.50;;
43771;SDS011;59066;54.782;32.024;2022-11-21T16:27:41;24.40;;;12.55;;
43771;SDS011;59066;54.782;32.024;2022-11-21T16:30:09;22.73;;;12.63;;
43771;SDS011;59066;54.782;32.024;2022-11-21T16:32:37;26.52;;;13.38;;
43771;SDS011;59066;54.782;32.024;2022-11-21T16:35:05;22.38;;;12.35;;
43771;SDS011;59066;54.782;32.024;2022-11-21T16:37:33;27.35;;;14.00;;
43771;SDS011;59066;54.782;32.024;2022-11-21T16:40:00;23.27;;;12.60;;
43771;SDS011;59066;54.782;32.024;2022-11-21T16:42:27;23.02;;;12.13;;
43771;SDS011;59066;54.782;32.024;2022-11-21T16:44:55;24.65;;;12.77;;
43771;SDS011;59066;54.782;32.024;2022-11-21T16:47:22;21.05;;;11.27;;